Time;durP1;ratioP1;P1;durP2;ratioP2;P2;SDS_P1;SDS_P2;PMS_P1;PMS_P2;Temp;Humidity;BMP_temperature;BMP_pressure;BME280_temperature;BME280_humidity;BME280_pressure;Samples;Min_cycle;Max_cycle;Signal;HPM_P1;HPM_P2
2023/06/01 00:00:24;;;;;;;;;11.00;10.00;;;;;19.01;66.95;100966.38;146609;680;46013;-62
2023/06/01 00:03:25;;;;;;;;;7.00;7.00;;;;;18.95;67.74;100962.75;146613;570;46021;-63
2023/06/01 00:06:21;;;;;;;;;10.25;10.25;;;;;18.91;68.31;100961.81;146619;640;46914;-64
2023/06/01 00:09:15;;;;;;;;;10.25;10.25;;;;;18.85;68.29;100964.31;146612;627;46030;-63
2023/06/01 00:12:31;;;;;;;;;13.00;12.00;;;;;18.80;68.24;100963.31;146610;569;46016;-62
2023/06/01 00:15:28;;;;;;;;;12.50;12.00;;;;;18.79;68.33;100962.44;146614;580;46020;-63
2023/06/01 00:18:29;;;;;;;;;7.33;7.33;;;;;18.75;69.23;100965.81;146611;603;47016;-63
2023/06/01 00:21:35;;;;;;;;;8.67;8.33;;;;;18.70;69.31;100970.06;146624;599;46010;-64
2023/06/01 00:24:42;;;;;;;;;10.00;10.00;;;;;18.70;68.98;100970.06;146617;569;46012;-65
2023/06/01 00:27:49;;;;;;;;;14.75;12.25;;;;;18.70;70.30;100962.19;146613;605;46010;-66
2023/06/01 00:30:49;;;;;;;;;14.25;11.50;;;;;18.67;70.11;100968.25;146609;657;47012;-64
2023/06/01 00:34:10;;;;;;;;;11.25;9.50;;;;;18.63;68.92;100970.78;146610;564;46020;-65
2023/06/01 00:37:14;;;;;;;;;8.33;8.00;;;;;18.62;69.66;100964.62;146617;629;46016;-64
2023/06/01 00:40:23;;;;;;;;;12.50;11.00;;;;;18.68;69.85;100958.63;146620;572;46020;-64
2023/06/01 00:43:26;;;;;;;;;15.25;12.75;;;;;18.75;68.78;100962.31;146612;617;46016;-66
2023/06/01 00:46:27;;;;;;;;;12.50;11.00;;;;;18.74;69.28;100969.31;146613;564;46011;-64
2023/06/01 00:49:26;;;;;;;;;11.75;11.50;;;;;18.68;70.84;100966.50;146613;573;46016;-65
2023/06/01 00:52:42;;;;;;;;;11.50;10.50;;;;;18.58;70.66;100964.53;146613;576;46015;-64
2023/06/01 00:55:40;;;;;;;;;12.25;12.00;;;;;18.56;70.57;100955.72;146613;637;46033;-65
2023/06/01 00:58:52;;;;;;;;;11.67;11.00;;;;;18.62;70.48;100959.37;146613;670;46020;-67
2023/06/01 01:01:52;;;;;;;;;13.00;11.25;;;;;18.71;70.63;100956.06;146610;575;47012;-65
2023/06/01 01:04:45;;;;;;;;;11.25;11.25;;;;;18.78;69.66;100959.75;146613;678;46010;-66
2023/06/01 01:08:16;;;;;;;;;12.25;11.25;;;;;16.23;69.45;100515.03;146614;574;46016;-64
2023/06/01 01:11:31;;;;;;;;;12.67;11.33;;;;;18.83;69.78;100961.63;146613;622;47014;-66
2023/06/01 01:14:47;;;;;;;;;9.00;9.00;;;;;18.84;70.20;100957.25;146613;672;46017;-66
2023/06/01 01:17:51;;;;;;;;;10.75;9.75;;;;;18.78;69.57;100952.75;146621;598;46010;-66
2023/06/01 01:21:03;;;;;;;;;13.67;10.33;;;;;18.78;69.08;100958.00;146618;577;46012;-66
2023/06/01 01:24:48;;;;;;;;;14.75;11.75;;;;;18.72;68.40;100955.22;146610;650;47011;-66
2023/06/01 01:28:21;;;;;;;;;11.00;9.75;;;;;16.19;68.18;100526.28;146611;574;47016;-67
2023/06/01 01:31:22;;;;;;;;;12.50;11.00;;;;;18.55;69.10;100946.09;146619;625;46021;-67
2023/06/01 01:34:28;;;;;;;;;14.33;12.33;;;;;18.50;68.85;100948.59;146612;646;46016;-65
2023/06/01 01:37:33;;;;;;;;;;;;;;;;;;;;;
2023/06/01 01:40:30;;;;;;;;;10.25;10.25;;;;;18.48;69.74;100949.44;146610;648;46012;-66
2023/06/01 01:43:51;;;;;;;;;9.50;9.50;;;;;18.53;70.23;100947.78;146614;568;46020;-68
2023/06/01 01:47:10;;;;;;;;;13.00;9.50;;;;;18.62;68.51;100943.62;146614;570;46012;-65
2023/06/01 01:50:11;;;;;;;;;9.25;9.00;;;;;18.72;69.42;100941.19;146621;575;46033;-65
2023/06/01 01:53:11;;;;;;;;;10.25;10.00;;;;;18.80;69.45;100937.91;146617;678;47013;-64
2023/06/01 01:56:08;;;;;;;;;9.75;8.75;;;;;18.86;68.93;100945.94;146615;575;46020;-63
2023/06/01 01:59:29;;;;;;;;;10.00;10.00;;;;;18.85;68.21;100946.78;146616;602;47012;-65
2023/06/01 02:02:23;;;;;;;;;11.25;11.25;;;;;18.85;68.97;100940.66;146614;625;46010;-64
2023/06/01 02:05:15;;;;;;;;;12.25;10.00;;;;;18.86;68.37;100939.78;146612;563;46916;-64
2023/06/01 02:08:18;;;;;;;;;10.75;10.50;;;;;18.89;69.58;100943.38;146614;569;46021;-64
2023/06/01 02:11:22;;;;;;;;;12.50;12.50;;;;;18.90;69.67;100947.75;146608;569;47012;-64
2023/06/01 02:14:28;;;;;;;;;13.00;13.00;;;;;16.17;69.75;100481.78;146616;721;46010;-64
2023/06/01 02:17:34;;;;;;;;;14.00;12.50;;;;;18.80;70.06;100958.94;146608;658;47012;-63
2023/06/01 02:20:36;;;;;;;;;14.25;12.00;;;;;18.76;69.96;100958.84;146616;599;46010;-64
2023/06/01 02:23:42;;;;;;;;;13.25;13.25;;;;;16.30;69.61;100533.56;146612;564;46917;-64
2023/06/01 02:26:35;;;;;;;;;13.75;11.00;;;;;18.79;70.86;100970.31;146614;597;46020;-64
2023/06/01 02:29:35;;;;;;;;;15.00;14.00;;;;;18.77;70.67;100976.37;146611;594;46916;-64
2023/06/01 02:32:30;;;;;;;;;11.00;11.00;;;;;18.75;71.17;100983.31;146614;626;46020;-64
2023/06/01 02:35:28;;;;;;;;;13.50;12.50;;;;;18.75;71.79;100989.47;146612;625;46013;-63
2023/06/01 02:38:27;;;;;;;;;11.50;11.50;;;;;18.64;71.54;100988.31;146611;608;46010;-63
2023/06/01 02:41:26;;;;;;;;;13.00;13.00;;;;;18.58;72.29;100993.44;146608;660;47023;-64
2023/06/01 02:44:39;;;;;;;;;10.75;10.75;;;;;15.79;70.87;100518.28;146614;667;46011;-63
2023/06/01 02:47:37;;;;;;;;;14.50;11.50;;;;;18.53;72.93;101003.81;146611;625;46912;-64
2023/06/01 02:50:33;;;;;;;;;13.25;12.00;;;;;18.54;73.49;101004.72;146615;637;46011;-64
2023/06/01 02:53:34;;;;;;;;;17.25;13.00;;;;;18.59;74.00;101003.94;146611;563;46012;-64
2023/06/01 02:56:44;;;;;;;;;;;;;;;;;;;;;
2023/06/01 02:59:43;;;;;;;;;14.50;12.25;;;;;18.55;74.05;101002.13;146610;678;46016;-64
2023/06/01 03:02:38;;;;;;;;;13.75;13.50;;;;;18.51;74.42;101002.91;146615;694;46020;-65
2023/06/01 03:05:35;;;;;;;;;14.67;11.67;;;;;18.50;73.85;101002.84;146611;573;47012;-64
2023/06/01 03:08:35;;;;;;;;;15.00;14.25;;;;;18.50;72.79;101009.00;146613;588;46021;-65
2023/06/01 03:11:33;;;;;;;;;13.25;12.50;;;;;18.53;73.72;101008.19;146613;590;46016;-65
2023/06/01 03:14:36;;;;;;;;;14.50;12.00;;;;;18.54;72.92;101007.34;146613;564;47010;-65
2023/06/01 03:17:46;;;;;;;;;19.00;15.00;;;;;18.52;73.25;101009.03;146611;647;46016;-64
2023/06/01 03:20:40;;;;;;;;;17.75;12.75;;;;;18.45;74.25;101011.53;146614;704;46021;-64
2023/06/01 03:23:46;;;;;;;;;;;;;;;;;;;;;
2023/06/01 03:26:42;;;;;;;;;12.25;11.25;;;;;18.43;73.76;101014.97;146611;693;47012;-63
2023/06/01 03:29:38;;;;;;;;;13.00;13.00;;;;;18.45;72.82;101014.16;146611;616;46016;-64
2023/06/01 03:32:44;;;;;;;;;16.50;15.00;;;;;18.51;73.57;101023.03;146614;602;46020;-64
2023/06/01 03:35:41;;;;;;;;;12.50;12.50;;;;;18.51;73.55;101020.41;146608;634;47016;-64
2023/06/01 03:38:36;;;;;;;;;16.75;14.00;;;;;18.56;73.42;101016.13;146613;687;46010;-63
2023/06/01 03:41:31;;;;;;;;;14.25;13.00;;;;;18.60;73.85;101018.88;146613;593;46012;-64
2023/06/01 03:44:28;;;;;;;;;14.75;12.25;;;;;18.64;74.83;101025.09;146613;574;47010;-64
2023/06/01 03:47:39;;;;;;;;;12.75;12.75;;;;;18.65;73.24;101019.84;146612;661;46016;-63
2023/06/01 03:50:51;;;;;;;;;14.00;13.25;;;;;17.58;73.05;100817.88;146614;633;46021;-63
2023/06/01 03:53:54;;;;;;;;;17.50;16.25;;;;;18.88;73.90;101009.03;146610;651;46016;-64
2023/06/01 03:56:52;;;;;;;;;15.00;14.25;;;;;19.00;73.43;101018.91;146612;596;46011;-63
2023/06/01 03:59:52;;;;;;;;;11.50;11.50;;;;;19.10;73.45;101018.25;146611;613;46016;-63
2023/06/01 04:02:46;;;;;;;;;13.25;12.50;;;;;19.20;73.50;101011.44;146612;656;46010;-63
2023/06/01 04:05:58;;;;;;;;;17.75;14.75;;;;;16.54;71.94;100532.37;146610;566;46013;-62
2023/06/01 04:09:05;;;;;;;;;13.50;12.25;;;;;19.29;72.16;101009.91;146611;654;46010;-64
2023/06/01 04:12:04;;;;;;;;;13.50;13.25;;;;;19.28;72.73;101010.75;146613;564;46012;-64
2023/06/01 04:15:20;;;;;;;;;16.25;13.00;;;;;19.36;72.36;101019.66;146614;740;46010;-65
2023/06/01 04:18:37;;;;;;;;;;;;;;;;;;;;;
2023/06/01 04:21:29;;;;;;;;;14.25;12.25;;;;;19.75;71.67;101018.72;146615;668;46021;-64
2023/06/01 04:24:43;;;;;;;;;;;;;;;;;;;;;
2023/06/01 04:27:59;;;;;;;;;16.00;15.00;;;;;18.68;70.33;100785.28;146613;595;46011;-64
2023/06/01 04:30:56;;;;;;;;;16.50;13.75;;;;;20.27;70.36;101035.41;146602;609;47914;-65
2023/06/01 04:33:53;;;;;;;;;16.25;14.25;;;;;20.39;69.48;101039.09;146614;597;46020;-64
2023/06/01 04:36:46;;;;;;;;;12.75;12.25;;;;;20.52;69.64;101036.72;146609;619;47034;-64
2023/06/01 04:40:15;;;;;;;;;16.50;12.00;;;;;18.18;68.10;100594.44;146608;571;46020;-64
2023/06/01 04:43:07;;;;;;;;;15.25;13.00;;;;;20.87;68.86;101036.38;146611;565;46016;-64
2023/06/01 04:46:13;;;;;;;;;;;;;;;;;;;;;
2023/06/01 04:49:11;;;;;;;;;13.50;13.25;;;;;21.13;68.37;101049.91;146611;569;46016;-65
2023/06/01 04:52:09;;;;;;;;;15.25;14.75;;;;;21.30;67.36;101043.94;146615;644;46020;-63
2023/06/01 04:55:04;;;;;;;;;17.75;15.25;;;;;21.36;66.81;101046.69;146610;613;46016;-64
2023/06/01 04:58:17;;;;;;;;;17.00;17.00;;;;;21.47;66.84;101041.56;146615;604;46011;-65
2023/06/01 05:01:17;;;;;;;;;14.75;14.00;;;;;21.60;66.87;101039.06;146609;606;46016;-66
2023/06/01 05:04:27;;;;;;;;;18.50;14.75;;;;;21.78;66.25;101037.50;146613;574;46010;-65
2023/06/01 05:07:24;;;;;;;;;18.50;13.75;;;;;21.91;65.21;101042.91;146610;597;46914;-65
2023/06/01 05:10:25;;;;;;;;;13.25;13.25;;;;;22.06;65.17;101038.66;146615;687;46020;-66
2023/06/01 05:13:22;;;;;;;;;14.25;12.50;;;;;22.17;64.58;101047.59;146612;579;46016;-64
2023/06/01 05:16:29;;;;;;;;;16.00;14.00;;;;;22.19;64.06;101037.03;146617;665;45023;-64
2023/06/01 05:19:27;;;;;;;;;18.25;16.50;;;;;22.20;64.39;101044.09;146611;672;46914;-65
2023/06/01 05:22:34;;;;;;;;;19.25;17.00;;;;;22.20;63.98;101047.59;146614;686;46020;-66
2023/06/01 05:25:37;;;;;;;;;17.25;16.50;;;;;22.07;64.08;101046.59;146611;669;46017;-66
2023/06/01 05:28:44;;;;;;;;;16.75;16.00;;;;;22.09;64.55;101057.19;146614;620;46021;-65
2023/06/01 05:31:47;;;;;;;;;21.25;18.25;;;;;22.05;64.89;101052.72;146612;578;46016;-65
2023/06/01 05:34:43;;;;;;;;;19.75;18.00;;;;;22.01;65.50;101059.72;146617;620;46021;-66
2023/06/01 05:37:35;;;;;;;;;15.50;15.00;;;;;21.99;66.10;101068.50;146613;570;46014;-66
2023/06/01 05:40:40;;;;;;;;;18.50;17.75;;;;;21.99;66.21;101069.38;146613;613;46013;-65
2023/06/01 05:43:34;;;;;;;;;19.75;18.50;;;;;22.04;66.72;101072.09;146610;603;46915;-64
2023/06/01 05:46:52;;;;;;;;;15.25;14.25;;;;;19.44;65.27;100617.50;146615;604;46020;-67
2023/06/01 05:49:51;;;;;;;;;15.00;13.50;;;;;22.08;66.32;101068.59;146612;629;46016;-67
2023/06/01 05:52:52;;;;;;;;;20.25;19.00;;;;;22.26;66.88;101073.19;146613;643;46020;-66
2023/06/01 05:55:55;;;;;;;;;13.50;12.00;;;;;22.47;65.49;101078.66;146612;592;46015;-66
2023/06/01 05:58:55;;;;;;;;;17.00;13.25;;;;;22.58;65.98;101069.03;146614;565;46020;-67
2023/06/01 06:02:03;;;;;;;;;17.50;15.50;;;;;22.66;65.25;101076.16;146612;577;46016;-66
2023/06/01 06:04:55;;;;;;;;;25.25;21.75;;;;;22.62;65.28;101074.34;146613;600;46021;-67
2023/06/01 06:07:51;;;;;;;;;22.00;19.00;;;;;22.50;66.11;101083.97;146612;574;46012;-68
2023/06/01 06:10:50;;;;;;;;;18.75;17.75;;;;;22.43;66.02;101081.25;146611;670;46020;-68
2023/06/01 06:17:08;;;;;;;;;;;;;;;;;;;;;
2023/06/01 06:20:07;;;;;;;;;20.50;18.25;;;;;22.53;66.68;101088.41;146610;633;46014;-68
2023/06/01 06:23:20;;;;;;;;;18.00;17.75;;;;;22.50;65.67;101083.97;146611;666;47010;-68
2023/06/01 06:26:37;;;;;;;;;21.50;19.00;;;;;22.57;66.98;101075.22;146612;608;46013;-69
2023/06/01 06:29:51;;;;;;;;;16.75;13.00;;;;;22.97;66.41;101074.66;146614;664;46020;-68
2023/06/01 06:32:56;;;;;;;;;18.50;14.25;;;;;23.33;63.97;101066.00;146610;719;46016;-68
2023/06/01 06:35:53;;;;;;;;;16.50;13.75;;;;;23.57;63.15;101073.16;146614;592;46010;-69
2023/06/01 06:38:59;;;;;;;;;17.00;13.25;;;;;23.85;61.43;101073.28;146612;571;46016;-69
2023/06/01 06:41:55;;;;;;;;;12.50;12.25;;;;;24.01;60.62;101074.19;146612;570;46021;-67
2023/06/01 06:45:10;;;;;;;;;;;;;;;;;;;;;
2023/06/01 06:48:06;;;;;;;;;13.25;12.00;;;;;24.48;59.64;101073.38;146613;651;46020;-68
2023/06/01 06:51:06;;;;;;;;;19.75;15.25;;;;;24.69;57.88;101078.66;146631;626;45016;-68
2023/06/01 06:54:12;;;;;;;;;18.75;17.75;;;;;24.81;58.12;101073.34;146635;571;45020;-66
2023/06/01 06:57:16;;;;;;;;;15.50;14.25;;;;;24.92;57.10;101078.59;146633;596;45016;-65
2023/06/01 07:00:20;;;;;;;;;13.75;13.25;;;;;25.04;57.29;101067.09;146633;597;46010;-64
2023/06/01 07:03:14;;;;;;;;;11.33;11.33;;;;;25.18;56.45;101070.63;146629;661;46013;-65
2023/06/01 07:06:37;;;;;;;;;14.00;13.00;;;;;22.96;57.20;100665.62;146635;604;45020;-64
2023/06/01 07:09:29;;;;;;;;;15.25;14.25;;;;;25.44;55.92;101067.84;146630;642;45911;-66
2023/06/01 07:12:27;;;;;;;;;12.00;11.67;;;;;25.56;55.76;101066.91;146629;671;45021;-64
2023/06/01 07:15:28;;;;;;;;;12.50;12.00;;;;;25.68;54.99;101066.84;146634;642;45016;-63
2023/06/01 07:18:40;;;;;;;;;11.75;11.00;;;;;25.68;55.85;101065.97;146636;690;45014;-67
2023/06/01 07:21:36;;;;;;;;;11.50;11.25;;;;;24.70;53.35;100893.91;146630;676;46012;-66
2023/06/01 07:24:36;;;;;;;;;13.33;11.33;;;;;25.70;55.64;101070.41;146636;587;45020;-64
2023/06/01 07:27:30;;;;;;;;;12.67;11.67;;;;;25.74;53.50;101063.28;146635;659;45016;-67
2023/06/01 07:30:36;;;;;;;;;11.00;10.75;;;;;25.80;54.33;101058.81;146630;584;45034;-65
2023/06/01 07:33:33;;;;;;;;;14.50;13.50;;;;;25.93;54.72;101058.78;146633;608;45014;-65
2023/06/01 07:37:04;;;;;;;;;16.00;13.50;;;;;23.80;55.41;100652.28;146632;576;45020;-65
2023/06/01 07:40:06;;;;;;;;;15.50;13.00;;;;;26.27;53.77;101062.06;146630;583;46013;-66
2023/06/01 07:43:13;;;;;;;;;13.00;10.33;;;;;26.40;51.68;101057.53;146630;618;46010;-66
2023/06/01 07:46:26;;;;;;;;;;;;;;;;;;;;;
2023/06/01 07:49:37;;;;;;;;;12.33;11.00;;;;;26.47;54.40;101053.91;146627;697;46030;-65
2023/06/01 07:52:40;;;;;;;;;10.33;10.00;;;;;26.57;53.73;101050.28;146611;622;46916;-66
2023/06/01 07:55:41;;;;;;;;;12.75;12.50;;;;;26.65;52.35;101048.47;146614;698;46014;-65
2023/06/01 07:59:12;;;;;;;;;;;;;;;;;;;;;
2023/06/01 08:02:26;;;;;;;;;14.67;12.67;;;;;26.41;52.04;101049.53;146615;597;46021;-66
2023/06/01 08:05:32;;;;;;;;;14.00;13.00;;;;;26.12;52.14;101041.81;146613;687;46012;-66
2023/06/01 08:08:49;;;;;;;;;;;;;;;;;;;;;
2023/06/01 08:11:47;;;;;;;;;11.33;10.00;;;;;26.16;52.07;101040.87;146612;609;46016;-65
2023/06/01 08:14:51;;;;;;;;;11.75;11.00;;;;;26.29;50.59;101038.13;146610;602;46010;-66
2023/06/01 08:18:12;;;;;;;;;11.00;10.00;;;;;26.51;50.55;101036.19;146612;564;46017;-66
2023/06/01 08:21:13;;;;;;;;;11.33;9.33;;;;;26.64;48.18;101029.87;146610;575;46020;-67
2023/06/01 08:24:14;;;;;;;;;8.67;7.33;;;;;26.75;51.40;101037.72;146616;590;47012;-66
2023/06/01 08:27:32;;;;;;;;;11.00;10.33;;;;;24.61;52.93;100629.72;146623;569;46010;-66
2023/06/01 08:30:36;;;;;;;;;14.00;10.67;;;;;27.03;48.23;101028.53;146612;603;46016;-66
2023/06/01 08:33:50;;;;;;;;;10.00;9.00;;;;;27.11;46.99;101031.13;146613;588;46020;-66
2023/06/01 08:37:13;;;;;;;;;12.67;10.67;;;;;27.14;47.22;101031.13;146618;571;46016;-66
2023/06/01 08:40:27;;;;;;;;;6.67;5.00;;;;;27.17;48.93;101023.09;146612;575;48010;-66
2023/06/01 08:43:39;;;;;;;;;9.33;8.33;;;;;25.65;50.89;100753.53;146616;666;46028;-67
2023/06/01 08:46:45;;;;;;;;;11.00;10.33;;;;;27.25;47.71;101022.97;146617;592;46021;-65
2023/06/01 08:50:01;;;;;;;;;11.00;11.00;;;;;27.25;49.98;101026.50;146611;563;46916;-66
2023/06/01 08:53:03;;;;;;;;;9.00;8.00;;;;;27.26;46.22;101022.97;146615;591;46010;-66
2023/06/01 08:56:06;;;;;;;;;12.67;10.67;;;;;27.37;49.55;101017.50;146620;708;46014;-65
2023/06/01 08:59:06;;;;;;;;;11.67;9.67;;;;;27.38;43.63;101024.56;146618;627;46020;-66
2023/06/01 09:02:27;;;;;;;;;12.67;9.67;;;;;27.15;48.19;101019.56;146618;592;46016;-67
2023/06/01 09:05:24;;;;;;;;;13.33;12.67;;;;;27.05;48.13;101020.53;146622;575;46010;-66
2023/06/01 09:08:22;;;;;;;;;12.33;10.67;;;;;27.07;48.88;101019.63;146612;578;46017;-66
2023/06/01 09:11:21;;;;;;;;;12.00;11.00;;;;;27.07;46.85;101016.97;146613;569;47010;-66
2023/06/01 09:14:34;;;;;;;;;9.00;9.00;;;;;27.06;51.08;101015.19;146612;569;46014;-66
2023/06/01 09:17:36;;;;;;;;;13.00;11.00;;;;;27.02;48.42;101018.78;146616;629;46021;-65
2023/06/01 09:20:39;;;;;;;;;9.67;9.00;;;;;27.08;48.44;101013.41;146612;619;46012;-66
2023/06/01 09:23:42;;;;;;;;;9.67;9.00;;;;;27.12;50.22;101012.44;146617;618;46020;-65
2023/06/01 09:26:51;;;;;;;;;12.00;9.00;;;;;27.16;49.88;101018.66;146618;578;46014;-65
2023/06/01 09:30:05;;;;;;;;;9.00;8.67;;;;;27.14;49.16;101008.03;146619;626;47020;-67
2023/06/01 09:33:40;;;;;;;;;8.67;8.67;;;;;24.93;51.11;100620.63;146619;686;46012;-66
2023/06/01 09:36:45;;;;;;;;;10.67;8.33;;;;;27.25;49.04;101015.00;146623;579;46010;-66
2023/06/01 09:39:47;;;;;;;;;11.00;10.00;;;;;27.25;48.68;101002.56;146618;613;46016;-66
2023/06/01 09:42:51;;;;;;;;;9.00;9.00;;;;;27.20;47.24;100988.44;146615;657;46020;-65
2023/06/01 09:46:18;;;;;;;;;11.33;10.33;;;;;27.12;48.25;100990.28;146619;564;46017;-66
2023/06/01 09:49:21;;;;;;;;;10.00;9.00;;;;;27.09;45.68;100990.31;146614;588;46033;-65
2023/06/01 09:52:32;;;;;;;;;6.67;6.00;;;;;27.06;48.87;100985.03;146614;599;46031;-66
2023/06/01 09:55:38;;;;;;;;;;;;;;;;;;;;;
2023/06/01 09:58:41;;;;;;;;;10.67;9.67;;;;;27.17;47.00;100983.16;146613;644;46016;-66
2023/06/01 10:01:44;;;;;;;;;10.33;7.67;;;;;27.29;47.70;100976.75;146622;584;47010;-67
2023/06/01 10:05:13;;;;;;;;;8.00;8.00;;;;;27.20;46.11;100984.88;146620;571;46916;-65
2023/06/01 10:08:28;;;;;;;;;11.33;10.33;;;;;25.09;47.20;100604.53;146608;590;46014;-66
2023/06/01 10:11:22;;;;;;;;;9.00;7.67;;;;;27.21;45.32;100962.69;146607;580;46016;-65
2023/06/01 10:14:37;;;;;;;;;9.67;9.67;;;;;27.18;46.00;100967.16;146610;568;46010;-65
2023/06/01 10:17:42;;;;;;;;;9.00;8.67;;;;;27.22;45.09;100964.44;146605;628;47012;-65
2023/06/01 10:21:11;;;;;;;;;11.00;11.00;;;;;25.02;47.99;100576.31;146606;602;46020;-64
2023/06/01 10:24:20;;;;;;;;;8.67;8.67;;;;;27.31;49.17;100969.66;146603;579;46027;-65
2023/06/01 10:27:45;;;;;;;;;8.00;8.00;;;;;26.18;48.05;100783.94;146610;684;46014;-65
2023/06/01 10:30:57;;;;;;;;;;;;;;;;;;;;;
2023/06/01 10:34:11;;;;;;;;;7.00;7.00;;;;;27.28;46.71;100959.03;146607;589;47014;-66
2023/06/01 10:37:39;;;;;;;;;;;;;;;;;;;;;
2023/06/01 10:40:34;;;;;;;;;8.00;8.00;;;;;27.21;44.04;100968.03;146607;581;46020;-65
2023/06/01 10:43:50;;;;;;;;;8.00;8.00;;;;;27.17;46.75;100961.88;146602;660;46914;-65
2023/06/01 10:47:02;;;;;;;;;11.00;8.33;;;;;27.16;44.20;100957.41;146606;594;46020;-65
2023/06/01 10:50:18;;;;;;;;;7.33;7.00;;;;;25.02;45.69;100596.66;146603;600;47012;-65
2023/06/01 10:53:35;;;;;;;;;8.00;6.33;;;;;27.20;47.58;100947.59;146609;604;46011;-64
2023/06/01 10:56:33;;;;;;;;;7.00;7.00;;;;;27.18;43.47;100951.19;146607;579;46012;-65
2023/06/01 10:59:51;;;;;;;;;7.00;7.00;;;;;27.19;43.36;100944.06;146606;581;46036;-64
2023/06/01 11:03:03;;;;;;;;;3.00;3.00;;;;;27.21;42.37;100936.06;146605;595;46016;-64
2023/06/01 11:06:07;;;;;;;;;4.67;4.67;;;;;27.19;40.39;100917.44;146608;610;47010;-64
2023/06/01 11:09:21;;;;;;;;;;;;;;;;;;;;;
2023/06/01 11:12:28;;;;;;;;;4.00;4.00;;;;;27.07;41.30;100928.22;146608;668;46020;-64
2023/06/01 11:15:46;;;;;;;;;;;;;;;;;;;;;
2023/06/01 11:19:07;;;;;;;;;5.00;4.00;;;;;24.64;47.83;100515.69;146610;575;46020;-64
2023/06/01 11:22:30;;;;;;;;;2.00;1.67;;;;;26.96;38.25;100917.75;146605;606;47012;-64
2023/06/01 11:25:35;;;;;;;;;6.33;5.00;;;;;26.97;39.80;100916.84;146607;631;46020;-65
2023/06/01 11:28:31;;;;;;;;;6.00;6.00;;;;;26.99;39.11;100909.72;146606;583;46916;-65
2023/06/01 11:32:03;;;;;;;;;3.67;3.67;;;;;24.94;45.29;100534.84;146609;569;46014;-64
2023/06/01 11:35:01;;;;;;;;;4.33;4.33;;;;;27.07;38.55;100912.25;146607;682;46033;-64
2023/06/01 11:37:59;;;;;;;;;5.33;4.00;;;;;27.05;37.48;100899.00;146610;579;46010;-66
2023/06/01 11:41:29;;;;;;;;;4.00;4.00;;;;;27.04;42.84;100894.59;146604;614;46016;-64
2023/06/01 11:44:24;;;;;;;;;6.33;6.00;;;;;27.10;40.24;100882.94;146609;581;46021;-65
2023/06/01 11:47:25;;;;;;;;;1.67;1.67;;;;;27.14;37.92;100885.59;146607;565;46016;-65
2023/06/01 11:50:40;;;;;;;;;5.33;5.33;;;;;27.25;36.54;100881.88;146610;578;46020;-66
2023/06/01 11:53:47;;;;;;;;;6.00;5.00;;;;;27.32;41.16;100871.13;146607;585;47012;-65
2023/06/01 11:56:58;;;;;;;;;4.00;4.00;;;;;27.36;42.15;100866.63;146607;578;46020;-65
2023/06/01 11:59:59;;;;;;;;;6.00;6.00;;;;;27.48;39.51;100852.25;146603;669;46017;-64
2023/06/01 12:03:10;;;;;;;;;6.00;6.00;;;;;27.67;40.17;100844.81;146608;656;46020;-66
2023/06/01 12:06:13;;;;;;;;;5.00;4.33;;;;;27.93;38.72;100839.91;146605;574;47012;-65
2023/06/01 12:09:16;;;;;;;;;4.33;4.33;;;;;28.21;33.06;100823.41;146609;657;46026;-65
2023/06/01 12:12:29;;;;;;;;;7.00;5.67;;;;;28.38;31.19;100815.03;146606;576;46016;-66
2023/06/01 12:15:31;;;;;;;;;6.33;6.33;;;;;28.59;33.36;100814.62;146609;574;46020;-66
2023/06/01 12:18:38;;;;;;;;;6.67;5.67;;;;;28.75;32.91;100809.81;146606;651;46014;-66
2023/06/01 12:21:46;;;;;;;;;7.33;6.67;;;;;28.76;32.60;100808.94;146609;577;46021;-66
2023/06/01 12:25:01;;;;;;;;;5.67;5.67;;;;;28.84;35.52;100798.94;146606;609;47014;-65
2023/06/01 12:28:36;;;;;;;;;5.00;4.00;;;;;28.94;38.52;100802.28;146607;564;47014;-67
2023/06/01 12:31:29;;;;;;;;;5.00;4.67;;;;;29.09;30.68;100803.75;146606;660;46020;-66
2023/06/01 12:34:47;;;;;;;;;4.00;4.00;;;;;29.10;30.41;100795.72;146606;592;46020;-67
2023/06/01 12:37:54;;;;;;;;;5.00;4.67;;;;;29.13;31.78;100776.94;146605;566;46017;-65
2023/06/01 12:41:04;;;;;;;;;7.33;5.67;;;;;29.14;39.25;100776.03;146610;576;46020;-66
2023/06/01 12:44:12;;;;;;;;;7.00;6.67;;;;;28.90;37.71;100780.13;146605;598;46017;-66
2023/06/01 12:47:18;;;;;;;;;6.00;6.00;;;;;28.79;38.84;100766.16;146609;569;47010;-67
2023/06/01 12:50:25;;;;;;;;;6.00;4.67;;;;;28.70;34.62;100777.06;146607;640;46016;-65
2023/06/01 12:53:27;;;;;;;;;3.67;3.67;;;;;28.56;37.20;100777.34;146610;564;45045;-64
2023/06/01 12:56:26;;;;;;;;;6.67;5.67;;;;;28.32;39.78;100782.28;146604;573;46014;-65
2023/06/01 12:59:44;;;;;;;;;3.67;3.00;;;;;28.06;41.51;100772.13;146606;579;46021;-64
2023/06/01 13:02:48;;;;;;;;;6.00;6.00;;;;;27.83;39.94;100767.28;146606;577;46016;-67
2023/06/01 13:06:09;;;;;;;;;5.00;4.00;;;;;25.67;42.02;100411.84;146606;575;46021;-65
2023/06/01 13:09:06;;;;;;;;;6.00;6.00;;;;;27.55;39.58;100748.22;146606;643;46014;-65
2023/06/01 13:12:05;;;;;;;;;4.33;4.33;;;;;27.52;36.41;100752.75;146605;563;47021;-65
2023/06/01 13:15:03;;;;;;;;;4.00;4.00;;;;;27.49;36.99;100745.69;146606;620;46016;-65
2023/06/01 13:17:58;;;;;;;;;5.00;4.00;;;;;27.48;40.67;100756.38;146606;580;47010;-65
2023/06/01 13:20:56;;;;;;;;;6.33;5.67;;;;;27.49;38.81;100743.00;146607;564;46014;-66
2023/06/01 13:23:57;;;;;;;;;5.67;5.67;;;;;27.49;35.24;100750.13;146605;565;46020;-66
2023/06/01 13:26:53;;;;;;;;;6.00;5.00;;;;;27.49;37.38;100750.13;146604;591;46035;-64
2023/06/01 13:30:07;;;;;;;;;5.67;5.67;;;;;27.47;42.29;100752.81;146608;651;46010;-65
2023/06/01 13:33:05;;;;;;;;;6.00;6.00;;;;;27.49;38.01;100737.69;146607;624;46016;-65
2023/06/01 13:36:07;;;;;;;;;7.33;7.00;;;;;27.58;36.96;100741.97;146608;581;47010;-65
2023/06/01 13:38:59;;;;;;;;;4.33;3.33;;;;;27.66;36.09;100739.16;146605;663;47012;-65
2023/06/01 13:41:52;;;;;;;;;5.33;4.33;;;;;27.73;34.79;100740.81;146609;588;47010;-65
2023/06/01 13:44:59;;;;;;;;;5.00;5.00;;;;;27.80;36.33;100727.38;146605;577;46012;-66
2023/06/01 13:47:56;;;;;;;;;6.00;6.00;;;;;27.90;33.05;100724.50;146607;686;47010;-65
2023/06/01 13:50:54;;;;;;;;;5.33;5.33;;;;;28.00;32.99;100724.28;146604;580;47017;-65
2023/06/01 13:53:49;;;;;;;;;6.33;5.33;;;;;28.09;35.90;100716.09;146608;588;47010;-66
2023/06/01 13:56:48;;;;;;;;;6.00;5.00;;;;;28.15;33.79;100712.44;146598;730;49915;-65
2023/06/01 13:59:52;;;;;;;;;5.67;4.67;;;;;28.19;32.42;100722.09;146608;599;46021;-65
2023/06/01 14:02:44;;;;;;;;;5.00;5.00;;;;;28.24;30.60;100711.34;146597;563;47916;-65
2023/06/01 14:05:39;;;;;;;;;4.33;4.33;;;;;28.26;31.38;100712.22;146608;574;47020;-65
2023/06/01 14:09:01;;;;;;;;;3.67;3.67;;;;;26.30;35.64;100378.91;146607;584;47012;-64
2023/06/01 14:12:03;;;;;;;;;7.00;5.00;;;;;28.22;33.79;100710.50;146609;620;46010;-64
2023/06/01 14:15:05;;;;;;;;;4.67;4.67;;;;;28.15;32.86;100708.88;146606;694;46016;-65
2023/06/01 14:18:06;;;;;;;;;7.00;6.00;;;;;28.13;35.10;100711.59;146610;600;47010;-66
2023/06/01 14:21:11;;;;;;;;;4.00;4.00;;;;;26.55;35.04;100450.25;146607;619;46027;-66
2023/06/01 14:24:08;;;;;;;;;7.00;6.33;;;;;28.08;32.42;100698.34;146604;579;47027;-65
2023/06/01 14:27:15;;;;;;;;;6.00;5.67;;;;;28.16;35.26;100695.50;146606;574;46916;-65
2023/06/01 14:30:23;;;;;;;;;4.33;3.00;;;;;28.22;36.36;100700.72;146606;570;47010;-64
2023/06/01 14:33:48;;;;;;;;;;;;;;;;;;;;;
2023/06/01 14:36:40;;;;;;;;;6.00;4.33;;;;;28.12;31.82;100688.50;146609;680;47013;-66
2023/06/01 14:39:47;;;;;;;;;4.00;4.00;;;;;28.15;31.47;100680.44;146604;607;47010;-66